createdAt,value
2023-01-06T04:04:40.943Z,10.20
2023-01-06T04:07:51.826Z,10.20
2023-01-06T04:11:03.325Z,10.31
2023-01-06T04:14:13.731Z,10.26
2023-01-06T04:17:24.035Z,10.24
2023-01-06T04:20:36.296Z,10.28
2023-01-06T04:23:53.252Z,10.28
2023-01-06T04:27:03.673Z,10.18
2023-01-06T04:30:16.412Z,10.09
2023-01-06T04:33:26.963Z,10.09
2023-01-06T04:36:43.136Z,9.98
2023-01-06T04:39:53.189Z,10.09
2023-01-06T04:43:06.167Z,10.10
2023-01-06T04:46:16.471Z,10.06
2023-01-06T04:49:26.584Z,10.14
2023-01-06T04:52:37.877Z,10.13
2023-01-06T04:55:47.758Z,10.14
2023-01-06T04:58:58.509Z,10.12
2023-01-06T05:02:08.381Z,9.95
2023-01-06T05:05:18.502Z,9.90
2023-01-06T05:08:30.748Z,9.96
2023-01-06T05:11:40.944Z,10.02
2023-01-06T05:14:50.838Z,9.93
2023-01-06T05:18:00.764Z,9.85
2023-01-06T05:21:11.236Z,9.92
2023-01-06T05:24:22.479Z,9.96
2023-01-06T05:27:32.442Z,9.82
2023-01-06T05:30:42.445Z,9.71
2023-01-06T05:33:52.406Z,9.75
2023-01-06T05:37:02.381Z,9.79
2023-01-06T05:40:13.992Z,9.83
2023-01-06T05:43:24.283Z,9.74
2023-01-06T05:46:34.237Z,9.68
2023-01-06T05:49:44.185Z,9.73
2023-01-06T05:52:54.794Z,9.78
2023-01-06T05:56:07.849Z,9.79
2023-01-06T05:59:17.818Z,9.65
2023-01-06T07:47:01.788Z,9.42
2023-01-06T07:50:11.854Z,9.43
2023-01-06T07:53:21.772Z,9.46
2023-01-06T07:56:31.830Z,9.60
2023-01-06T07:59:41.824Z,9.70
2023-01-06T08:02:53.175Z,9.74
2023-01-06T08:06:07.663Z,9.74
2023-01-06T08:09:17.740Z,9.66
2023-01-06T08:12:27.708Z,9.71
2023-01-06T08:15:38.656Z,9.79
2023-01-06T08:18:50.202Z,9.79
2023-01-06T08:22:00.279Z,9.92
2023-01-06T08:25:10.904Z,9.84
2023-01-06T08:28:20.846Z,9.81
2023-01-06T08:31:30.831Z,9.78
2023-01-06T08:34:42.254Z,9.77
2023-01-06T08:37:52.163Z,9.85
2023-01-06T08:41:03.053Z,9.82
2023-01-06T08:44:13.004Z,9.89
2023-01-06T08:47:23.012Z,9.78
2023-01-06T08:50:34.272Z,9.77
2023-01-06T08:53:47.511Z,9.75
2023-01-06T08:56:58.224Z,9.72
2023-01-06T09:00:09.459Z,9.78
2023-01-06T09:03:19.595Z,9.77
2023-01-06T09:06:31.167Z,9.83
2023-01-06T09:09:41.196Z,9.78
2023-01-06T09:12:51.845Z,9.75
2023-01-06T09:16:03.213Z,9.84
2023-01-06T09:19:13.126Z,9.93
2023-01-06T09:22:24.404Z,10.01
2023-01-06T09:25:34.491Z,10.15
2023-01-06T09:28:44.438Z,10.29
2023-01-06T09:31:54.574Z,10.30
2023-01-06T09:35:04.621Z,10.31
2023-01-06T09:38:16.693Z,10.38
2023-01-06T09:41:43.992Z,10.38
2023-01-06T09:44:58.401Z,10.35
2023-01-06T09:48:12.898Z,10.34
2023-01-06T09:51:26.200Z,10.38
2023-01-06T09:54:41.497Z,10.27
2023-01-06T09:57:58.184Z,10.23
2023-01-06T10:01:13.533Z,10.19
2023-01-06T10:04:27.960Z,10.26
2023-01-06T10:07:47.091Z,10.26
2023-01-06T10:11:14.029Z,10.35
2023-01-06T10:14:38.628Z,10.47
2023-01-06T10:18:00.776Z,10.59
2023-01-06T10:21:20.150Z,10.57
2023-01-06T10:24:40.992Z,10.55
2023-01-06T10:27:57.349Z,10.45
2023-01-06T10:31:12.118Z,10.35
2023-01-06T10:34:24.401Z,10.48
2023-01-06T10:37:40.214Z,10.66
2023-01-06T10:40:50.299Z,10.85
2023-01-06T10:44:01.800Z,11.08
2023-01-06T10:47:21.388Z,11.09
2023-01-06T10:50:31.965Z,11.10
2023-01-06T10:53:41.995Z,11.04
2023-01-06T10:56:56.762Z,11.24
2023-01-06T11:00:15.296Z,11.44
2023-01-06T11:03:33.476Z,11.65
2023-01-06T11:06:47.417Z,11.68
2023-01-06T11:10:00.577Z,11.71
2023-01-06T11:13:24.759Z,11.66
2023-01-06T11:16:38.259Z,11.99
2023-01-06T11:20:07.631Z,12.13
2023-01-06T11:23:24.052Z,12.25
2023-01-06T11:26:46.119Z,12.36
2023-01-06T11:29:56.244Z,12.40
2023-01-06T11:33:17.000Z,12.32
2023-01-06T11:36:31.112Z,12.33
2023-01-06T11:39:45.190Z,12.39
2023-01-06T11:43:00.849Z,12.27
2023-01-06T11:46:11.756Z,12.04
2023-01-06T11:49:27.991Z,12.13
2023-01-06T11:52:39.427Z,11.94
2023-01-06T11:55:57.677Z,11.91
2023-01-06T11:59:11.912Z,11.98
2023-01-06T12:02:27.222Z,11.92
2023-01-06T12:05:44.595Z,11.77
2023-01-06T12:09:03.339Z,11.79
2023-01-06T12:12:19.383Z,11.91
2023-01-06T12:15:32.930Z,12.04
2023-01-06T12:18:44.188Z,12.15
2023-01-06T12:21:56.720Z,12.09
2023-01-06T12:25:13.630Z,12.00
2023-01-06T12:28:28.204Z,11.80
2023-01-06T12:31:46.667Z,11.69
2023-01-06T12:35:02.283Z,11.73
2023-01-06T12:38:24.084Z,11.65
2023-01-06T12:41:39.282Z,11.64
2023-01-06T12:44:53.544Z,11.64
2023-01-06T12:48:13.402Z,11.63
2023-01-06T12:51:28.601Z,11.55
2023-01-06T12:54:40.569Z,11.59
2023-01-06T12:57:59.061Z,11.69
2023-01-06T13:01:18.436Z,11.42
2023-01-06T13:04:49.646Z,11.22
2023-01-06T13:08:16.617Z,11.21
2023-01-06T13:11:40.147Z,11.13
2023-01-06T13:14:58.826Z,11.00
2023-01-06T13:18:16.856Z,10.91
2023-01-06T13:21:28.101Z,10.87
2023-01-06T13:24:51.403Z,10.74
2023-01-06T13:28:15.633Z,10.66
2023-01-06T13:31:41.214Z,10.42
2023-01-06T13:35:12.543Z,10.54
2023-01-06T13:38:38.334Z,10.47
2023-01-06T13:41:53.879Z,10.37
2023-01-06T13:45:13.677Z,10.40
2023-01-06T13:48:27.376Z,10.40
2023-01-06T13:51:39.728Z,10.37
2023-01-06T13:55:02.660Z,10.30
2023-01-06T13:58:35.886Z,10.27
2023-01-06T14:01:47.543Z,10.18
2023-01-06T14:04:57.720Z,10.01
2023-01-06T14:08:18.382Z,10.06
2023-01-06T14:11:30.870Z,9.94
2023-01-06T14:14:41.477Z,9.99
2023-01-06T14:17:53.282Z,10.08
2023-01-06T14:21:06.542Z,10.06
2023-01-06T14:24:26.712Z,10.00
2023-01-06T14:28:03.400Z,9.95
2023-01-06T14:31:39.894Z,9.97
2023-01-06T14:34:54.037Z,9.94
2023-01-06T14:38:06.933Z,9.88
2023-01-06T14:41:23.510Z,9.93
2023-01-06T14:44:44.458Z,9.78
2023-01-06T14:47:57.841Z,9.72
2023-01-06T14:51:15.884Z,9.71
2023-01-06T14:54:30.007Z,9.76
2023-01-06T14:57:40.512Z,9.65
2023-01-06T15:00:50.816Z,9.66
2023-01-06T15:04:03.551Z,9.63
2023-01-06T15:07:19.770Z,9.68
2023-01-06T15:10:33.090Z,9.65
2023-01-06T15:13:44.089Z,9.67
2023-01-06T15:16:55.525Z,9.67
2023-01-06T15:20:14.065Z,9.58
2023-01-06T15:23:25.773Z,9.50
2023-01-06T15:26:35.892Z,9.58
2023-01-06T15:29:52.922Z,9.59
2023-01-06T15:33:05.060Z,9.57
2023-01-06T15:36:20.865Z,9.53
2023-01-06T15:39:35.013Z,9.44
2023-01-06T15:42:45.130Z,9.47
2023-01-06T15:45:59.216Z,9.47
2023-01-06T15:49:24.140Z,9.45
2023-01-06T15:52:37.561Z,9.46
2023-01-06T15:55:52.499Z,9.45
2023-01-06T15:59:02.881Z,9.43
2023-01-06T16:02:19.426Z,9.31
2023-01-06T16:05:39.834Z,9.25
2023-01-06T16:08:49.758Z,9.20
2023-01-06T16:12:16.900Z,9.23
2023-01-06T16:15:41.827Z,9.26
2023-01-06T16:18:52.638Z,9.27
2023-01-06T16:22:25.152Z,9.27
2023-01-06T16:25:36.247Z,9.20
2023-01-06T16:28:51.121Z,9.17
2023-01-06T16:32:21.043Z,9.14
2023-01-06T16:35:32.434Z,9.11
2023-01-06T16:38:42.443Z,9.16
2023-01-06T16:42:32.437Z,9.14
2023-01-06T16:45:51.016Z,9.13
2023-01-06T16:49:06.745Z,9.17
2023-01-06T16:52:16.775Z,9.22
2023-01-06T16:55:27.168Z,9.14
2023-01-06T16:58:37.130Z,9.23
2023-01-06T17:01:49.463Z,9.26
2023-01-06T17:04:59.599Z,9.26
2023-01-06T17:08:13.109Z,9.16
2023-01-06T17:11:25.493Z,9.12
2023-01-06T17:14:38.322Z,9.20
2023-01-06T17:17:49.594Z,9.22
2023-01-06T17:21:02.525Z,9.18
2023-01-06T17:24:15.725Z,9.25
2023-01-06T17:27:27.120Z,9.29
2023-01-06T17:30:37.135Z,9.32
2023-01-06T17:33:48.489Z,9.40
2023-01-06T17:37:06.320Z,9.46
2023-01-06T17:40:18.941Z,9.54
2023-01-06T17:43:33.606Z,9.50
2023-01-06T17:46:43.855Z,9.58
2023-01-06T17:49:57.007Z,9.60
2023-01-06T17:53:26.540Z,9.57
2023-01-06T17:56:36.515Z,9.60
2023-01-06T17:59:48.396Z,9.73
2023-01-06T18:03:02.208Z,9.71
2023-01-06T18:06:26.108Z,9.62
2023-01-06T18:09:36.099Z,9.66
2023-01-06T18:12:46.078Z,9.71
2023-01-06T18:15:58.864Z,9.82
2023-01-06T18:19:24.107Z,9.85
2023-01-06T18:22:38.186Z,9.86
2023-01-06T18:25:48.821Z,9.82
2023-01-06T18:29:01.453Z,9.88
2023-01-06T18:32:25.752Z,9.85
2023-01-06T18:35:36.099Z,9.89
2023-01-06T18:38:47.552Z,9.82
2023-01-06T18:42:14.024Z,9.93
2023-01-06T18:45:25.888Z,9.87
2023-01-06T18:48:37.435Z,9.85
2023-01-06T18:51:48.614Z,9.92
2023-01-06T18:55:01.871Z,9.94
2023-01-06T18:58:26.068Z,10.06
2023-01-06T19:01:41.712Z,10.00
2023-01-06T19:04:51.763Z,9.97
2023-01-06T19:08:11.532Z,9.81
2023-01-06T19:11:26.148Z,9.85
2023-01-06T19:14:38.369Z,9.91
2023-01-06T19:17:50.021Z,9.93
2023-01-06T19:21:01.765Z,9.95
2023-01-06T19:24:33.937Z,9.96
2023-01-06T19:27:48.262Z,9.91
2023-01-06T19:30:59.391Z,9.90
2023-01-06T19:34:16.555Z,9.98
2023-01-06T19:37:27.591Z,9.96
2023-01-06T19:40:43.613Z,9.97
2023-01-06T19:44:02.133Z,9.88
2023-01-06T19:47:17.891Z,9.90
2023-01-06T19:50:27.944Z,9.84
2023-01-06T19:53:43.919Z,9.77
2023-01-06T19:56:55.082Z,9.68
2023-01-06T20:00:22.770Z,9.61
2023-01-06T20:03:35.526Z,9.59
2023-01-06T20:06:45.563Z,9.53
2023-01-06T20:09:56.354Z,9.50
2023-01-06T20:13:06.425Z,9.40
2023-01-06T20:16:18.081Z,9.43
2023-01-06T20:19:27.974Z,9.40
2023-01-06T20:22:38.008Z,9.39
2023-01-06T20:25:48.150Z,9.41
2023-01-06T20:28:58.027Z,9.42
2023-01-06T20:32:09.364Z,9.46
2023-01-06T20:35:20.200Z,9.53
2023-01-06T20:38:30.250Z,9.50
2023-01-06T20:41:40.165Z,9.46
2023-01-06T20:44:50.275Z,9.47
2023-01-06T20:48:01.579Z,9.48
2023-01-06T20:51:11.557Z,9.55
2023-01-06T20:54:21.764Z,9.54
2023-01-06T20:57:31.819Z,9.65
2023-01-06T21:00:41.940Z,9.69
2023-01-06T21:03:53.318Z,9.73
2023-01-06T21:07:03.298Z,9.57
2023-01-06T21:10:13.225Z,9.54
2023-01-06T21:13:24.383Z,9.57
2023-01-06T21:16:34.484Z,9.57
2023-01-06T21:19:45.819Z,9.52
2023-01-06T21:22:55.699Z,9.50
2023-01-06T21:26:05.754Z,9.54
2023-01-06T21:29:15.786Z,9.63
2023-01-06T21:32:25.830Z,9.66
2023-01-06T21:35:40.388Z,9.68
2023-01-06T21:38:50.439Z,9.65
2023-01-06T21:42:11.514Z,9.46
2023-01-06T21:45:21.554Z,9.42
2023-01-06T21:48:31.647Z,9.48
2023-01-06T21:51:43.113Z,9.40
2023-01-06T21:54:53.122Z,9.33
2023-01-06T21:58:03.521Z,9.30
2023-01-06T22:01:13.739Z,9.39
2023-01-06T22:04:24.126Z,9.42
2023-01-06T22:07:37.728Z,9.38
2023-01-06T22:10:48.406Z,9.40
2023-01-06T22:13:59.056Z,9.32
2023-01-06T22:17:09.466Z,9.25
2023-01-06T22:20:19.623Z,9.22
2023-01-06T22:23:33.225Z,9.31
2023-01-06T22:26:43.198Z,9.36
2023-01-06T22:29:53.233Z,9.38
2023-01-06T22:33:03.722Z,9.47
2023-01-06T22:36:13.688Z,9.51
2023-01-06T22:39:24.951Z,9.45
2023-01-06T22:42:34.884Z,9.38
